Time;durP1;ratioP1;P1;durP2;ratioP2;P2;SDS_P1;SDS_P2;PMS_P1;PMS_P2;Temp;Humidity;BMP_temperature;BMP_pressure;BME280_temperature;BME280_humidity;BME280_pressure;Samples;Min_cycle;Max_cycle;Signal;HPM_P1;HPM_P2
2023/07/08 00:00:54;;;;;;;5.63;3.83;;;;;;;19.48;70.90;101572.81;5033017;28;20048;-76
2023/07/08 00:03:20;;;;;;;8.57;4.30;;;;;;;19.47;70.32;101567.66;5032439;28;20029;-76
2023/07/08 00:05:47;;;;;;;8.27;3.70;;;;;;;19.43;70.29;101558.38;5050689;28;20040;-76
2023/07/08 00:08:16;;;;;;;6.88;4.35;;;;;;;19.39;71.32;101549.09;5050846;28;20033;-76
2023/07/08 00:10:42;;;;;;;7.55;3.60;;;;;;;19.31;71.13;101549.44;5046040;28;20095;-76
2023/07/08 00:13:08;;;;;;;6.25;3.88;;;;;;;19.32;70.43;101551.91;5010092;28;20419;-76
2023/07/08 00:15:35;;;;;;;5.35;3.72;;;;;;;19.32;70.68;101559.22;5050740;28;20028;-76
2023/07/08 00:18:01;;;;;;;9.45;3.75;;;;;;;19.33;71.34;101555.44;5050720;28;20439;-76
2023/07/08 00:20:37;;;;;;;7.35;3.80;;;;;;;19.29;72.04;101548.88;5032739;28;20121;-76
2023/07/08 00:23:02;;;;;;;5.85;3.15;;;;;;;19.24;72.05;101549.59;5048806;28;20033;-76
2023/07/08 00:25:28;;;;;;;6.85;3.60;;;;;;;19.20;72.54;101553.81;5039912;28;20116;-76
2023/07/08 00:27:54;;;;;;;5.57;3.45;;;;;;;19.17;73.45;101549.69;5038439;28;20426;-76
2023/07/08 00:30:24;;;;;;;8.52;3.92;;;;;;;19.15;75.79;101546.44;5041292;28;20123;-76
2023/07/08 00:32:53;;;;;;;7.78;3.83;;;;;;;19.09;76.16;101536.53;5050453;28;20032;-76
2023/07/08 00:35:40;;;;;;;4.97;3.75;;;;;;;19.09;73.48;101528.44;5045917;28;20052;-76
2023/07/08 00:38:26;;;;;;;5.72;3.67;;;;;;;19.09;73.13;101541.94;5031165;28;20032;-76
2023/07/08 00:40:58;;;;;;;6.25;3.53;;;;;;;19.02;73.52;101535.81;5030806;28;20037;-76
2023/07/08 00:43:34;;;;;;;5.53;4.03;;;;;;;19.02;73.70;101533.13;5031013;28;20037;-76
2023/07/08 00:46:13;;;;;;;7.32;4.32;;;;;;;18.96;74.94;101534.91;5031081;28;20118;-76
2023/07/08 00:48:39;;;;;;;7.00;4.25;;;;;;;18.89;75.71;101531.50;5040587;28;20024;-76
2023/07/08 00:51:10;;;;;;;6.85;3.60;;;;;;;18.86;75.77;101533.84;5032051;28;20052;-76
2023/07/08 00:53:37;;;;;;;10.73;4.93;;;;;;;18.83;75.31;101538.66;5026512;28;20029;-76
2023/07/08 00:56:20;;;;;;;6.72;3.78;;;;;;;18.80;74.20;101531.03;5049728;28;20399;-76
2023/07/08 00:59:04;;;;;;;8.13;3.95;;;;;;;18.82;75.21;101537.03;5035593;28;20036;-76
2023/07/08 01:01:34;;;;;;;5.25;4.40;;;;;;;18.73;74.83;101524.91;5046425;28;20396;-76
2023/07/08 01:04:06;;;;;;;7.00;4.45;;;;;;;18.72;74.78;101535.94;5049833;28;20627;-76
2023/07/08 01:06:39;;;;;;;8.50;3.78;;;;;;;18.63;75.61;101538.16;5033531;28;20046;-76
2023/07/08 01:09:07;;;;;;;8.25;4.40;;;;;;;18.61;75.54;101532.97;5030698;28;20087;-76
2023/07/08 01:11:34;;;;;;;6.85;4.50;;;;;;;18.50;76.29;101525.69;5037213;28;20112;-76
2023/07/08 01:14:02;;;;;;;7.22;4.15;;;;;;;18.53;75.63;101532.50;5049505;28;20024;-76
2023/07/08 01:16:28;;;;;;;8.25;4.55;;;;;;;18.64;74.94;101536.28;5049534;28;20036;-76
2023/07/08 01:18:53;;;;;;;6.90;4.10;;;;;;;18.61;75.77;101535.69;5050080;28;20029;-76
2023/07/08 01:21:32;;;;;;;8.65;4.22;;;;;;;18.56;75.37;101521.22;5049243;28;20119;-76
2023/07/08 01:23:59;;;;;;;7.55;4.00;;;;;;;18.63;74.78;101532.75;5030357;28;20036;-76
2023/07/08 01:26:26;;;;;;;7.78;4.22;;;;;;;18.63;75.88;101521.94;5044485;28;20476;-76
2023/07/08 01:28:54;;;;;;;7.28;4.05;;;;;;;18.58;76.11;101524.53;5048875;28;20029;-76
2023/07/08 01:31:21;;;;;;;9.35;5.28;;;;;;;18.59;75.44;101524.28;5049372;28;20051;-76
2023/07/08 01:33:47;;;;;;;5.60;4.28;;;;;;;18.50;75.72;101512.19;5044903;28;20538;-76
2023/07/08 01:36:12;;;;;;;7.55;4.18;;;;;;;18.55;75.54;101525.81;5031345;28;20033;-76
2023/07/08 01:38:39;;;;;;;7.53;4.82;;;;;;;18.54;75.33;101526.03;5049064;28;20047;-76
2023/07/08 01:41:05;;;;;;;6.95;4.43;;;;;;;18.52;76.59;101531.69;5040361;28;20037;-76
2023/07/08 01:43:31;;;;;;;6.72;4.00;;;;;;;18.57;75.55;101523.69;5030062;28;20025;-75
2023/07/08 01:46:00;;;;;;;6.32;4.35;;;;;;;18.60;76.03;101515.13;5020382;28;20116;-76
2023/07/08 01:48:33;;;;;;;5.53;3.88;;;;;;;18.62;75.09;101520.28;5049013;28;20064;-76
2023/07/08 01:51:04;;;;;;;8.48;4.05;;;;;;;18.61;75.54;101524.06;5035908;28;20045;-76
2023/07/08 01:53:41;;;;;;;8.43;4.88;;;;;;;18.63;75.18;101511.16;5030060;28;20473;-76
2023/07/08 01:56:07;;;;;;;8.38;4.38;;;;;;;18.67;75.25;101509.59;5029779;28;20503;-76
2023/07/08 01:58:33;;;;;;;7.20;4.18;;;;;;;18.60;76.86;101501.63;5034344;28;20033;-76
2023/07/08 02:01:00;;;;;;;9.02;4.40;;;;;;;18.65;76.02;101500.91;5020635;28;20029;-76
2023/07/08 02:03:26;;;;;;;9.77;4.90;;;;;;;18.56;77.23;101502.31;5011919;28;20031;-77
2023/07/08 02:05:51;;;;;;;5.28;3.53;;;;;;;18.56;75.37;101489.63;5035219;28;20120;-76
2023/07/08 02:08:17;;;;;;;9.10;4.63;;;;;;;18.55;75.69;101487.19;5030760;28;20132;-77
2023/07/08 02:10:44;;;;;;;8.10;4.43;;;;;;;18.46;75.88;101483.97;5048182;28;20583;-77
2023/07/08 02:13:10;;;;;;;5.07;3.90;;;;;;;18.43;75.61;101480.94;5048148;28;20112;-77
2023/07/08 02:15:35;;;;;;;8.98;5.40;;;;;;;18.40;76.57;101483.03;5048658;28;20494;-77
2023/07/08 02:18:01;;;;;;;5.07;3.72;;;;;;;18.35;76.44;101479.41;5048676;28;20033;-76
2023/07/08 02:20:26;;;;;;;6.68;3.70;;;;;;;18.36;76.60;101484.56;5048528;28;20033;-77
2023/07/08 02:22:52;;;;;;;5.75;4.00;;;;;;;18.37;76.26;101480.00;5030119;28;20037;-77
2023/07/08 02:25:17;;;;;;;6.65;3.70;;;;;;;18.28;76.71;101482.19;5032219;28;20035;-77
2023/07/08 02:27:42;;;;;;;6.68;3.65;;;;;;;18.24;77.64;101472.13;5031944;28;20033;-77
2023/07/08 02:30:09;;;;;;;8.13;4.50;;;;;;;18.14;77.63;101475.38;5047343;28;20085;-77
2023/07/08 02:32:35;;;;;;;7.35;4.30;;;;;;;18.06;78.41;101473.81;5048265;28;20029;-77
2023/07/08 02:35:03;;;;;;;5.43;3.80;;;;;;;17.98;77.65;101473.34;5048268;28;20033;-77
2023/07/08 02:37:30;;;;;;;6.43;4.25;;;;;;;17.98;77.90;101484.97;5048016;28;20071;-76
2023/07/08 02:39:55;;;;;;;9.73;4.13;;;;;;;17.90;78.08;101463.69;5048216;28;20484;-76
2023/07/08 02:42:21;;;;;;;7.25;4.25;;;;;;;17.92;77.64;101475.91;5045559;28;20036;-76
2023/07/08 02:44:46;;;;;;;6.03;4.28;;;;;;;17.89;78.14;101473.69;5029313;28;20189;-76
2023/07/08 02:47:12;;;;;;;7.95;4.20;;;;;;;17.83;78.68;101465.66;5034539;28;20029;-76
2023/07/08 02:49:37;;;;;;;5.82;4.35;;;;;;;17.82;78.99;101470.25;5029172;28;20030;-77
2023/07/08 02:52:03;;;;;;;4.88;3.92;;;;;;;17.79;79.35;101476.09;5029252;28;20396;-77
2023/07/08 02:54:28;;;;;;;5.35;3.63;;;;;;;17.74;79.83;101471.34;5029227;28;20055;-76
2023/07/08 02:56:53;;;;;;;7.88;3.95;;;;;;;17.75;79.46;101470.28;5029118;28;20032;-76
2023/07/08 02:59:19;;;;;;;6.40;4.32;;;;;;;17.68;79.77;101458.78;5029292;28;20087;-76
2023/07/08 03:01:46;;;;;;;5.93;3.78;;;;;;;17.69;79.31;101463.13;5039270;28;20037;-76
2023/07/08 03:04:13;;;;;;;10.55;4.93;;;;;;;17.71;80.12;101463.72;5048138;28;20025;-76
2023/07/08 03:06:42;;;;;;;8.32;4.00;;;;;;;17.72;79.37;101469.94;5047923;28;20459;-76
2023/07/08 03:09:09;;;;;;;6.88;4.38;;;;;;;17.72;79.56;101469.94;5048025;28;20416;-76
2023/07/08 03:11:35;;;;;;;5.97;3.75;;;;;;;17.78;79.24;101473.59;5048099;28;20040;-77
2023/07/08 03:14:01;;;;;;;7.35;4.10;;;;;;;17.77;80.89;101477.34;5047513;28;20032;-77
2023/07/08 03:16:26;;;;;;;8.13;4.38;;;;;;;17.74;80.23;101478.63;5029141;28;20080;-77
2023/07/08 03:18:51;;;;;;;6.07;3.90;;;;;;;17.69;80.27;101473.91;5032675;28;20036;-77
2023/07/08 03:21:18;;;;;;;7.88;4.13;;;;;;;17.68;80.09;101484.94;5011286;28;20075;-77
2023/07/08 03:23:44;;;;;;;8.27;4.40;;;;;;;17.63;80.00;101480.25;5038361;28;20060;-77
2023/07/08 03:26:15;;;;;;;9.30;4.13;;;;;;;17.59;79.76;101480.91;5036586;28;20026;-77
2023/07/08 03:28:41;;;;;;;9.63;4.33;;;;;;;17.58;80.31;101482.78;5032644;28;20037;-77
2023/07/08 03:31:09;;;;;;;7.80;4.22;;;;;;;17.52;81.42;101481.81;5042195;28;20388;-77
2023/07/08 03:33:35;;;;;;;7.45;4.07;;;;;;;17.52;81.30;101475.59;5032459;28;20026;-77
2023/07/08 03:36:01;;;;;;;6.70;4.00;;;;;;;17.50;80.94;101486.63;5045870;28;20519;-77
2023/07/08 03:38:27;;;;;;;6.70;4.25;;;;;;;17.45;81.29;101473.00;5051298;28;20047;-77
2023/07/08 03:40:52;;;;;;;7.20;3.70;;;;;;;17.54;81.01;101484.28;5033471;28;20033;-77
2023/07/08 03:43:18;;;;;;;7.60;3.92;;;;;;;17.52;80.61;101479.09;5033496;28;20033;-77
2023/07/08 03:45:43;;;;;;;8.80;4.43;;;;;;;17.57;80.30;101489.22;5042561;28;20116;-77
2023/07/08 03:48:11;;;;;;;6.22;3.72;;;;;;;17.57;80.89;101496.50;5032085;28;20056;-76
2023/07/08 03:50:36;;;;;;;10.52;4.20;;;;;;;17.59;80.21;101495.22;5031928;28;20057;-76
2023/07/08 03:53:02;;;;;;;8.00;4.38;;;;;;;17.52;81.43;101491.78;5035695;28;20039;-77
2023/07/08 03:55:28;;;;;;;5.38;3.70;;;;;;;17.55;80.81;101487.81;5051104;28;20029;-77
2023/07/08 03:57:53;;;;;;;6.25;4.28;;;;;;;17.50;81.27;101492.03;5041168;28;20038;-77
2023/07/08 04:00:19;;;;;;;6.72;4.00;;;;;;;17.53;80.81;101485.34;5014279;28;20053;-76
2023/07/08 04:02:46;;;;;;;8.25;4.70;;;;;;;17.54;81.18;101486.97;5039918;28;20499;-77
2023/07/08 04:05:20;;;;;;;7.85;4.10;;;;;;;17.56;80.81;101484.88;5050755;28;20032;-77
2023/07/08 04:07:46;;;;;;;7.75;3.92;;;;;;;17.58;82.27;101487.34;5050771;28;20029;-76
2023/07/08 04:10:12;;;;;;;7.07;4.03;;;;;;;17.59;81.27;101489.81;5050432;28;20035;-77
2023/07/08 04:12:38;;;;;;;7.97;4.85;;;;;;;17.62;81.51;101491.25;5031744;28;20117;-76
2023/07/08 04:15:04;;;;;;;7.43;4.25;;;;;;;17.65;81.08;101488.91;5034481;28;20029;-77
2023/07/08 04:17:30;;;;;;;6.47;4.13;;;;;;;17.71;80.82;101496.09;5038244;28;20037;-77
2023/07/08 04:20:01;;;;;;;6.75;4.72;;;;;;;17.67;81.63;101496.78;5032548;28;20157;-77
2023/07/08 04:22:26;;;;;;;10.85;5.43;;;;;;;17.70;80.67;101499.84;5038069;28;20037;-77
2023/07/08 04:24:51;;;;;;;8.85;4.78;;;;;;;17.72;82.54;101502.31;5013774;28;20044;-76
2023/07/08 04:27:17;;;;;;;7.70;4.55;;;;;;;17.71;82.48;101497.94;5031173;28;20568;-77
2023/07/08 04:29:44;;;;;;;7.65;3.85;;;;;;;17.65;82.37;101488.09;5042668;28;20107;-76
2023/07/08 04:32:09;;;;;;;10.13;5.35;;;;;;;17.75;82.51;101496.47;5030267;28;20033;-77
2023/07/08 04:34:35;;;;;;;10.82;5.15;;;;;;;17.72;82.69;101495.03;5045889;28;20051;-77
2023/07/08 04:37:01;;;;;;;9.57;4.47;;;;;;;17.75;81.38;101486.47;5032434;28;20051;-76
2023/07/08 04:39:27;;;;;;;8.75;5.10;;;;;;;17.92;82.12;101504.75;5032434;28;20029;-77
2023/07/08 04:41:52;;;;;;;10.10;5.18;;;;;;;17.95;82.51;101490.81;5032407;28;20032;-77
2023/07/08 04:44:18;;;;;;;8.43;4.78;;;;;;;18.01;82.54;101491.78;5039296;28;20033;-76
2023/07/08 04:46:53;;;;;;;8.82;5.05;;;;;;;18.05;82.54;101482.16;5044979;28;20056;-76
2023/07/08 04:49:20;;;;;;;5.78;4.40;;;;;;;18.03;83.31;101485.09;5049963;28;20128;-77
2023/07/08 04:51:45;;;;;;;9.93;5.00;;;;;;;18.02;82.54;101482.59;5049681;28;20049;-77
2023/07/08 04:54:10;;;;;;;8.20;4.70;;;;;;;18.08;82.56;101489.81;5031509;28;20095;-77
2023/07/08 04:56:42;;;;;;;9.38;4.88;;;;;;;18.11;82.37;101483.94;5032581;28;20108;-77
2023/07/08 04:59:09;;;;;;;10.27;5.43;;;;;;;18.14;82.41;101488.88;5031879;28;20063;-77
2023/07/08 05:01:35;;;;;;;8.80;5.93;;;;;;;18.23;80.92;101492.88;5047788;28;20037;-77
2023/07/08 05:04:03;;;;;;;10.77;5.43;;;;;;;18.28;82.03;101503.78;5022314;28;20036;-77
2023/07/08 05:06:28;;;;;;;19.38;5.78;;;;;;;18.36;81.04;101506.16;5034048;28;20033;-77
2023/07/08 05:08:54;;;;;;;8.38;5.07;;;;;;;18.46;81.82;101496.66;5042328;28;20047;-77
2023/07/08 05:11:19;;;;;;;9.57;6.28;;;;;;;18.46;82.51;101481.28;5032412;28;20068;-77
2023/07/08 05:13:44;;;;;;;14.45;5.25;;;;;;;18.54;81.22;101483.63;5030244;28;20086;-77
2023/07/08 05:16:10;;;;;;;11.90;6.30;;;;;;;18.60;80.56;101479.16;5035848;28;20368;-77
2023/07/08 05:18:35;;;;;;;13.48;5.95;;;;;;;18.66;80.79;101488.25;5034529;28;20032;-77
2023/07/08 05:21:02;;;;;;;9.95;5.13;;;;;;;18.72;80.05;101487.28;5039519;28;20029;-77
2023/07/08 05:23:28;;;;;;;8.13;4.82;;;;;;;18.77;81.27;101485.56;5021595;28;20044;-77
2023/07/08 05:25:54;;;;;;;10.77;5.38;;;;;;;18.82;81.01;101488.38;5044372;28;20056;-78
2023/07/08 05:28:21;;;;;;;11.57;5.82;;;;;;;18.90;79.76;101487.19;5030618;28;20945;-77
2023/07/08 05:30:46;;;;;;;11.60;6.47;;;;;;;18.97;79.67;101484.38;5047833;28;20041;-77
2023/07/08 05:33:12;;;;;;;10.77;5.53;;;;;;;18.97;81.32;101473.56;5025476;28;20557;-76
2023/07/08 05:35:37;;;;;;;14.65;6.28;;;;;;;19.12;80.95;101486.56;5012045;28;20810;-76
2023/07/08 05:38:02;;;;;;;10.93;5.55;;;;;;;19.20;79.34;101491.59;5036214;28;20063;-76
2023/07/08 05:40:28;;;;;;;11.25;6.55;;;;;;;19.23;79.79;101485.72;5027167;28;20079;-77
2023/07/08 05:42:53;;;;;;;9.48;6.00;;;;;;;19.35;79.72;101491.09;5049507;28;20029;-76
2023/07/08 05:45:18;;;;;;;11.85;5.95;;;;;;;19.44;78.64;101481.53;5027387;28;20036;-77
2023/07/08 05:47:44;;;;;;;18.80;6.07;;;;;;;19.51;79.98;101482.22;5031316;28;20029;-76
2023/07/08 05:50:09;;;;;;;12.88;6.38;;;;;;;19.57;79.82;101489.41;5043193;28;20088;-76
2023/07/08 05:52:35;;;;;;;9.70;6.50;;;;;;;19.60;78.92;101485.41;5039659;28;20041;-77
2023/07/08 05:55:00;;;;;;;12.82;6.57;;;;;;;19.65;80.56;101489.00;5031119;28;20061;-77
2023/07/08 05:57:25;;;;;;;11.27;5.93;;;;;;;19.84;77.82;101480.72;5047001;28;20017;-76
2023/07/08 05:59:52;;;;;;;7.53;5.35;;;;;;;20.15;78.20;101484.78;5047242;28;20037;-76
2023/07/08 06:02:19;;;;;;;10.82;6.30;;;;;;;20.40;77.08;101475.44;5046345;28;20060;-76
2023/07/08 06:04:44;;;;;;;10.65;6.53;;;;;;;21.10;74.14;101484.88;5045352;28;20055;-77
2023/07/08 06:07:10;;;;;;;9.27;5.57;;;;;;;21.25;73.04;101487.78;5038309;28;20057;-77
2023/07/08 06:09:35;;;;;;;10.52;5.88;;;;;;;21.09;73.96;101491.34;5012086;28;20041;-77
2023/07/08 06:12:01;;;;;;;15.77;7.00;;;;;;;20.88;74.30;101484.84;5029695;28;20064;-77
2023/07/08 06:14:28;;;;;;;11.70;5.57;;;;;;;20.81;75.92;101490.44;5038112;28;20045;-76
2023/07/08 06:16:54;;;;;;;9.68;5.47;;;;;;;20.79;74.03;101496.09;5034119;28;20068;-77
2023/07/08 06:19:20;;;;;;;10.88;5.25;;;;;;;20.72;75.02;101505.47;5029743;28;20030;-77
2023/07/08 06:21:45;;;;;;;8.35;5.75;;;;;;;20.67;74.56;101499.97;5047341;28;20040;-77
2023/07/08 06:24:10;;;;;;;9.13;5.53;;;;;;;20.73;73.43;101502.53;5014274;28;20037;-77
2023/07/08 06:26:36;;;;;;;6.72;5.45;;;;;;;20.90;73.80;101499.78;5043316;28;20480;-77
2023/07/08 06:29:02;;;;;;;12.02;5.40;;;;;;;20.94;73.61;101495.50;5045889;28;20070;-77
2023/07/08 06:31:28;;;;;;;12.45;5.00;;;;;;;20.96;71.25;101489.84;5029600;28;20025;-76
2023/07/08 06:33:54;;;;;;;9.57;5.50;;;;;;;20.95;71.75;101502.56;5037205;28;20041;-77
2023/07/08 06:36:19;;;;;;;9.30;5.35;;;;;;;20.91;73.05;101503.34;5043404;28;20559;-77
2023/07/08 06:38:45;;;;;;;8.93;5.50;;;;;;;20.97;74.02;101500.44;5036854;28;20038;-77
2023/07/08 06:41:10;;;;;;;7.75;5.25;;;;;;;20.93;72.31;101496.59;5014203;28;20032;-77
2023/07/08 06:43:35;;;;;;;9.80;5.13;;;;;;;21.02;74.73;101496.97;5038763;28;20029;-77
2023/07/08 06:46:01;;;;;;;8.35;5.03;;;;;;;21.08;72.12;101495.16;5048491;28;20040;-77
2023/07/08 06:48:26;;;;;;;10.10;5.10;;;;;;;21.13;74.29;101500.66;5040158;28;20029;-77
2023/07/08 06:50:52;;;;;;;7.00;4.57;;;;;;;21.19;74.24;101499.63;5033064;28;20053;-77
2023/07/08 06:53:17;;;;;;;10.18;4.75;;;;;;;21.26;74.84;101504.88;5040522;28;20044;-77
2023/07/08 06:55:46;;;;;;;14.55;5.45;;;;;;;21.33;71.68;101503.63;5043581;28;20532;-77
2023/07/08 06:58:12;;;;;;;9.82;5.68;;;;;;;21.40;72.76;101498.03;5037067;28;20029;-76
2023/07/08 07:00:38;;;;;;;10.32;5.93;;;;;;;21.46;72.77;101488.88;5037541;28;20536;-76
2023/07/08 07:03:03;;;;;;;9.02;5.07;;;;;;;21.55;73.34;101487.34;5044338;28;20033;-76
2023/07/08 07:05:28;;;;;;;13.65;6.18;;;;;;;21.61;71.17;101488.22;5045442;28;20057;-76
2023/07/08 07:07:54;;;;;;;10.65;5.15;;;;;;;21.70;71.02;101486.69;5049540;28;20487;-76
2023/07/08 07:10:20;;;;;;;10.98;5.60;;;;;;;21.74;70.86;101484.28;5007755;28;20033;-76
2023/07/08 07:12:45;;;;;;;11.55;5.88;;;;;;;21.83;71.67;101489.00;5038304;28;20105;-76
2023/07/08 07:15:10;;;;;;;15.65;5.25;;;;;;;21.89;68.50;101493.41;5032838;28;20128;-76
2023/07/08 07:17:36;;;;;;;11.18;5.30;;;;;;;21.93;69.27;101496.44;5046575;28;20017;-76
2023/07/08 07:20:03;;;;;;;9.77;5.65;;;;;;;22.00;70.27;101494.31;5052051;28;20067;-75
2023/07/08 07:22:28;;;;;;;11.10;5.55;;;;;;;22.10;70.11;101493.59;5047644;28;20029;-76
2023/07/08 07:24:54;;;;;;;13.45;7.47;;;;;;;22.20;69.72;101495.63;5024203;28;20040;-76
2023/07/08 07:27:20;;;;;;;12.23;5.95;;;;;;;22.24;69.18;101483.13;5019679;28;20392;-76
2023/07/08 07:29:48;;;;;;;8.88;4.90;;;;;;;22.33;66.68;101488.94;5049898;28;20040;-76
2023/07/08 07:32:14;;;;;;;9.40;4.45;;;;;;;22.40;65.63;101484.06;5042417;28;20057;-76
2023/07/08 07:34:40;;;;;;;13.13;5.40;;;;;;;22.45;68.07;101492.28;5039656;28;20040;-76
2023/07/08 07:37:10;;;;;;;10.93;5.25;;;;;;;22.50;65.50;101486.88;5030730;28;20025;-76
2023/07/08 07:39:35;;;;;;;10.70;5.72;;;;;;;22.58;66.01;101485.56;5032046;28;20083;-77
2023/07/08 07:42:00;;;;;;;10.73;5.35;;;;;;;22.66;64.96;101479.63;5031625;28;20025;-76
2023/07/08 07:44:26;;;;;;;10.20;5.60;;;;;;;22.73;64.19;101481.03;5036674;28;20110;-76
2023/07/08 07:46:53;;;;;;;10.65;5.22;;;;;;;22.81;65.69;101485.16;5020599;28;20041;-77
2023/07/08 07:49:19;;;;;;;9.70;5.63;;;;;;;22.90;67.04;101488.22;5051498;28;20029;-76
2023/07/08 07:51:45;;;;;;;11.00;5.35;;;;;;;22.93;66.02;101479.53;5051084;28;20088;-76
2023/07/08 07:54:10;;;;;;;10.30;5.45;;;;;;;23.01;63.97;101483.69;5033416;28;20032;-76
2023/07/08 07:56:35;;;;;;;13.32;5.80;;;;;;;23.14;64.13;101485.94;5051496;28;20035;-76
2023/07/08 07:59:02;;;;;;;7.93;4.57;;;;;;;23.21;64.09;101483.75;5032946;28;20041;-77
2023/07/08 08:01:28;;;;;;;9.35;4.72;;;;;;;23.32;63.37;101488.19;5050660;28;20028;-77
2023/07/08 08:03:53;;;;;;;11.18;5.57;;;;;;;23.45;62.90;101489.59;5026475;28;20032;-76
2023/07/08 08:06:18;;;;;;;10.85;5.63;;;;;;;23.52;63.83;101486.59;5031772;28;20067;-76
2023/07/08 08:08:45;;;;;;;10.43;5.43;;;;;;;23.64;64.06;101487.19;5017133;28;20037;-76
2023/07/08 08:11:11;;;;;;;12.23;5.47;;;;;;;23.72;64.86;101486.69;5032324;28;20029;-76
2023/07/08 08:13:36;;;;;;;10.50;4.72;;;;;;;23.80;63.34;101485.34;5051079;28;20464;-76
2023/07/08 08:16:02;;;;;;;11.00;5.53;;;;;;;24.11;63.27;101486.19;5050839;28;20025;-76
2023/07/08 08:18:27;;;;;;;11.13;5.43;;;;;;;24.32;62.70;101483.47;5050970;28;20040;-76
2023/07/08 08:20:53;;;;;;;12.73;4.40;;;;;;;25.75;59.18;101491.19;5043411;28;20029;-76
2023/07/08 08:23:18;;;;;;;11.55;5.18;;;;;;;28.30;50.50;101486.69;5031525;28;20629;-76
2023/07/08 08:25:43;;;;;;;9.50;5.00;;;;;;;30.60;44.68;101486.34;5037260;28;20103;-76
2023/07/08 08:28:09;;;;;;;8.48;4.78;;;;;;;32.23;39.51;101492.47;5031149;28;20033;-76
2023/07/08 08:30:35;;;;;;;10.40;5.05;;;;;;;33.49;37.08;101497.63;5031312;28;20488;-76
2023/07/08 08:33:00;;;;;;;11.40;5.47;;;;;;;34.68;34.47;101503.47;5041627;28;20048;-76
2023/07/08 08:35:26;;;;;;;12.77;5.38;;;;;;;35.52;33.56;101508.50;5035284;28;20631;-76
2023/07/08 08:37:53;;;;;;;12.20;5.55;;;;;;;36.11;31.47;101507.88;5046620;28;20485;-75
2023/07/08 08:40:19;;;;;;;13.90;5.43;;;;;;;36.66;30.19;101504.53;5031306;28;20045;-75
2023/07/08 08:42:53;;;;;;;8.30;4.28;;;;;;;37.26;31.09;101507.97;5030895;28;20044;-75
2023/07/08 08:45:21;;;;;;;8.68;5.03;;;;;;;37.41;30.21;101507.09;5031280;28;20067;-76
2023/07/08 08:47:53;;;;;;;10.32;4.88;;;;;;;37.98;29.35;101501.13;5040607;28;20032;-75
2023/07/08 08:50:47;;;;;;;10.98;5.20;;;;;;;38.76;32.26;101510.09;5050035;28;20021;-76
2023/07/08 08:53:16;;;;;;;7.13;4.50;;;;;;;38.18;27.84;101505.50;5047111;28;20205;-75
2023/07/08 08:55:42;;;;;;;8.75;4.25;;;;;;;38.33;28.45;101501.78;5050119;28;20745;-75
2023/07/08 08:58:30;;;;;;;11.82;5.75;;;;;;;38.75;29.14;101503.72;5050075;28;20029;-75
2023/07/08 09:01:08;;;;;;;11.48;5.30;;;;;;;38.88;29.02;101504.31;5050010;28;20036;-76
2023/07/08 09:03:47;;;;;;;8.07;4.63;;;;;;;39.39;30.08;101511.44;5048331;28;20025;-76
2023/07/08 09:06:23;;;;;;;8.20;4.88;;;;;;;39.59;27.68;101500.91;5049025;28;20037;-75
2023/07/08 09:08:50;;;;;;;8.50;5.03;;;;;;;38.08;28.03;101506.09;5049338;28;20060;-75
2023/07/08 09:11:24;;;;;;;12.90;5.20;;;;;;;36.41;30.43;101507.44;5019249;28;20064;-75
2023/07/08 09:13:51;;;;;;;12.52;6.15;;;;;;;34.30;32.87;101504.56;5031905;28;20087;-76
2023/07/08 09:16:52;;;;;;;9.20;5.30;;;;;;;33.38;36.25;101503.53;5048544;28;20339;-74
2023/07/08 09:19:25;;;;;;;12.50;5.03;;;;;;;32.13;34.88;101511.34;5041348;28;20480;-76
2023/07/08 09:22:14;;;;;;;13.95;5.47;;;;;;;31.33;37.38;101512.38;5029282;28;20025;-75
2023/07/08 09:24:47;;;;;;;11.45;5.57;;;;;;;30.80;38.53;101511.38;5029595;28;20517;-76
2023/07/08 09:27:13;;;;;;;10.63;4.57;;;;;;;30.44;39.49;101508.78;5038982;28;20025;-76
2023/07/08 09:29:38;;;;;;;10.68;5.25;;;;;;;30.14;38.83;101507.59;5030446;28;20052;-75
2023/07/08 09:32:25;;;;;;;10.63;5.15;;;;;;;29.91;41.20;101502.09;5039211;28;20029;-75
2023/07/08 09:34:54;;;;;;;10.10;4.95;;;;;;;29.64;41.84;101500.25;5049231;28;20118;-76
2023/07/08 09:37:31;;;;;;;13.15;6.32;;;;;;;29.59;42.28;101505.84;5048978;28;20103;-75
2023/07/08 09:39:59;;;;;;;12.02;5.47;;;;;;;29.46;42.63;101496.50;5049062;28;20040;-76
2023/07/08 09:42:32;;;;;;;11.27;5.28;;;;;;;29.47;43.19;101494.56;5031217;28;20227;-76
2023/07/08 09:45:01;;;;;;;11.88;5.50;;;;;;;29.37;44.33;101492.03;5030011;28;20481;-75
2023/07/08 09:47:32;;;;;;;20.55;7.13;;;;;;;29.30;41.67;101488.91;5039186;28;20033;-76
2023/07/08 09:49:58;;;;;;;;;;;;;;;29.48;43.46;101496.22;5049729;28;20032;-76
2023/07/08 09:52:24;;;;;;;14.30;6.10;;;;;;;29.38;45.55;101488.19;5041355;28;19991;-76
2023/07/08 09:54:49;;;;;;;11.82;6.05;;;;;;;29.40;44.31;101497.75;5048855;28;20028;-76
2023/07/08 09:57:25;;;;;;;13.38;5.18;;;;;;;29.61;44.38;101502.81;5049113;28;20380;-76
2023/07/08 09:59:58;;;;;;;13.52;5.65;;;;;;;29.60;44.49;101496.47;5046817;28;20440;-75
2023/07/08 10:02:37;;;;;;;12.57;6.35;;;;;;;29.70;42.96;101488.00;5032267;28;20475;-76
2023/07/08 10:05:23;;;;;;;13.60;5.93;;;;;;;29.60;44.44;101485.47;5049221;28;20033;-76
2023/07/08 10:07:53;;;;;;;13.45;6.88;;;;;;;29.24;45.68;101479.97;5048836;28;20067;-76
2023/07/08 10:10:26;;;;;;;13.17;6.47;;;;;;;29.17;44.45;101485.06;5048738;28;20039;-76
2023/07/08 10:13:14;;;;;;;10.88;5.90;;;;;;;29.14;44.76;101481.00;5032641;28;20182;-76
2023/07/08 10:15:44;;;;;;;10.98;6.07;;;;;;;29.08;46.00;101478.66;4984752;28;20377;-76
2023/07/08 10:18:15;;;;;;;13.98;7.00;;;;;;;29.13;45.84;101484.03;5048595;28;20052;-76
2023/07/08 10:20:58;;;;;;;12.52;6.72;;;;;;;29.16;44.05;101476.00;5047856;28;20029;-76
2023/07/08 10:23:42;;;;;;;13.95;5.50;;;;;;;29.18;43.24;101476.50;5031025;28;20084;-76
2023/07/08 10:26:27;;;;;;;10.52;5.85;;;;;;;29.30;42.90;101473.25;5031816;28;20037;-76
2023/07/08 10:29:06;;;;;;;12.57;6.07;;;;;;;29.38;40.08;101474.44;5047250;28;20029;-76
2023/07/08 10:31:50;;;;;;;11.65;4.65;;;;;;;29.58;38.27;101484.16;5048622;28;20551;-76
2023/07/08 10:34:28;;;;;;;12.13;5.72;;;;;;;29.76;39.47;101479.66;5048326;28;20021;-76
2023/07/08 10:37:23;;;;;;;12.27;5.20;;;;;;;29.88;38.00;101485.41;5033929;28;20040;-76
2023/07/08 10:40:05;;;;;;;14.13;6.35;;;;;;;29.86;38.25;101493.97;5035081;28;20361;-76
2023/07/08 10:42:58;;;;;;;10.82;4.95;;;;;;;29.85;35.54;101484.09;5037635;28;20033;-79
2023/07/08 10:45:51;;;;;;;14.20;5.70;;;;;;;29.92;37.30;101483.66;5032161;28;20112;-78
2023/07/08 10:48:35;;;;;;;11.25;5.30;;;;;;;30.07;36.66;101488.78;5021153;28;20053;-74
2023/07/08 10:51:31;;;;;;;12.80;5.15;;;;;;;30.20;37.21;101489.84;5033392;28;20044;-74
2023/07/08 10:54:22;;;;;;;10.32;5.35;;;;;;;30.35;36.41;101488.66;5033259;28;20103;-74
2023/07/08 10:57:06;;;;;;;14.88;6.80;;;;;;;30.41;34.55;101490.16;5034292;28;20097;-74
2023/07/08 10:59:53;;;;;;;10.52;5.05;;;;;;;30.56;36.40;101488.94;5034240;28;20090;-74
2023/07/08 11:02:39;;;;;;;10.88;5.18;;;;;;;30.57;33.94;101483.09;5032325;28;20079;-76
2023/07/08 11:05:41;;;;;;;11.30;4.82;;;;;;;30.64;34.70;101487.34;5032145;28;20029;-76
2023/07/08 11:08:36;;;;;;;9.98;5.05;;;;;;;30.67;34.99;101479.25;5019672;28;20045;-77
2023/07/08 11:11:14;;;;;;;10.90;5.30;;;;;;;30.82;35.64;101485.50;5019194;28;20067;-77
2023/07/08 11:14:12;;;;;;;12.48;5.25;;;;;;;30.79;32.53;101481.44;5032108;28;20025;-75
2023/07/08 11:16:52;;;;;;;16.85;5.68;;;;;;;30.84;33.14;101475.81;5015298;28;20041;-76
2023/07/08 11:19:26;;;;;;;15.98;6.28;;;;;;;30.80;32.02;101474.78;5032362;28;20044;-75
2023/07/08 11:21:54;;;;;;;11.23;5.40;;;;;;;30.99;35.88;101482.78;5032148;28;20029;-78
2023/07/08 11:24:57;;;;;;;8.88;5.22;;;;;;;31.10;32.60;101477.78;5033024;28;20059;-77
2023/07/08 11:27:30;;;;;;;16.27;6.32;;;;;;;31.15;30.82;101474.88;4923565;29;20047;-75
2023/07/08 11:29:59;;;;;;;11.18;4.90;;;;;;;31.19;30.43;101482.19;5017751;28;20130;-78
2023/07/08 11:32:28;;;;;;;15.25;5.60;;;;;;;31.25;31.28;101479.28;5032965;28;20091;-78